10°C
Gosport, Hampshire, United Kingdom
Language:  English
Updated26/01/2020 11:50:00 
 

Nearby METAR Reports

 

EGHI - Southampton Wx Centre, United Kingdom
Distance from station: NW 15mi, 24km
Updated: 26-Jan-2020 11:55:14
unable to load EGHI data RC=
unable to load EGHI data RC=
 
EGHH - Bournemouth Airport, United Kingdom
Distance from station: W 30mi, 49km
Updated: 26-Jan-2020 11:50:00
Mostly cloudy
Mostly cloudy
 Wind from SSW
Wind: SSW 14 mph , 22 km/h
Temperature: 10°C
Wind Chill: 7°C
Dew Point: 9°C
Humidity: 94%
Barometer: 1009 hPa
Clouds: Mostly cloudy
Visibility: 6 miles , 10 km
Cloud details: Mostly cloudy 244 m
2020/01/26 11:50 EGHH 261150Z 20012KT 9999 BKN008 10/09 Q1009
EGVP - Middle Wallop Airfield, United Kingdom
Distance from station: NW 31mi, 49km
Updated: 26-Jan-2020 10:50:00
Mostly cloudy
Mostly cloudy
 Wind from S
Wind: S 15 mph , 24 km/h
Temperature: 9°C
Wind Chill: 6°C
Dew Point: 8°C
Humidity: 94%
Barometer: 1009 hPa
Clouds: Mostly cloudy
Visibility: 6 miles , 10 km
Cloud details: Few Clouds 335 m
Partly cloudy 1036 m
Mostly cloudy 1524 m
2020/01/26 10:50 EGVP 261050Z AUTO 19013KT 9999 // FEW011/// SCT034/// BKN050/// 09/08 Q1009
 
EGVO - RAF Odiham, United Kingdom
Distance from station: NNE 32mi, 52km
Updated: 26-Jan-2020 10:50:00
Partly cloudy
Partly cloudy
 Wind from S
Wind: S 13 mph , 20 km/h
Temperature: 9°C
Wind Chill: 6°C
Dew Point: 7°C
Humidity: 87%
Barometer: 1010 hPa
Clouds: Partly cloudy
Visibility: 6 miles , 10 km
Cloud details: Few Clouds 366 m
Partly cloudy 1524 m
2020/01/26 10:50 EGVO 261050Z AUTO 18011KT 9999 FEW012/// SCT050/// 09/07 Q1010
EGKA - Shoreham Airport, United Kingdom
Distance from station: E 37mi, 59km
Updated: 26-Jan-2020 11:50:00
Partly cloudy
Partly cloudy
 Wind from SSW
Wind: SSW 14 mph , 22 km/h
Temperature: 10°C
Wind Chill: 7°C
Dew Point: 8°C
Humidity: 88%
Barometer: 1011 hPa
Clouds: Partly cloudy
Visibility: 4 miles , 6 km
Cloud details: Partly cloudy 305 m
2020/01/26 11:50 EGKA 261150Z 20012KT 6000 SCT010 10/08 Q1011
EGDM - Boscombe Down, United Kingdom
Distance from station: NW 38mi, 61km
Updated: 26-Jan-2020 10:50:00
Mostly cloudy
Mostly cloudy
 Wind from S
Wind: S 16 mph , 26 km/h
Temperature: 9°C
Wind Chill: 6°C
Dew Point: 8°C
Humidity: 94%
Barometer: 1009 hPa
Clouds: Mostly cloudy
Visibility: 6 miles , 10 km
Cloud details: Few Clouds 213 m
Mostly cloudy 1524 m
2020/01/26 10:50 EGDM 261050Z AUTO 18014KT 9999 FEW007/// BKN050/// 09/08 Q1009
 
EGLF - Farnborough, United Kingdom
Distance from station: NNE 38mi, 61km
Updated: 26-Jan-2020 11:50:00
Mostly cloudy
Mostly cloudy
 Wind from S
Wind: S 10 mph , 17 km/h
Temperature: 10°C
Wind Chill: 8°C
Dew Point: 7°C
Humidity: 82%
Barometer: 1009 hPa
Clouds: Mostly cloudy
Visibility: 6 miles , 10 km
Cloud details: Few Clouds 457 m
Mostly cloudy 671 m
2020/01/26 11:50 EGLF 261150Z 19009KT 9999 FEW015 BKN022 10/07 Q1009
EGKK - Gatwick Airport, United Kingdom
Distance from station: ENE 49mi, 78km
Updated: 26-Jan-2020 11:50:00
Mostly cloudy
Mostly cloudy
 Wind from SSW
Wind: SSW 10 mph , 17 km/h
Temperature: 9°C
Wind Chill: 7°C
Dew Point: 8°C
Humidity: 94%
Barometer: 1011 hPa
Clouds: Mostly cloudy
Visibility: 6 miles , 10 km
Cloud details: Mostly cloudy 305 m
Mostly cloudy 640 m
2020/01/26 11:50 EGKK 261150Z 20009KT 9999 BKN010 BKN021 09/08 Q1011
EGLL - Heathrow Airport, United Kingdom
Distance from station: NNE 57mi, 91km
Updated: 26-Jan-2020 11:50:00
Mostly cloudy
Mostly cloudy
 Wind from SSW
Wind: SSW 13 mph , 20 km/h, Gust: 26 mph , 43 km/h
Temperature: 10°C
Wind Chill: 7°C
Dew Point: 8°C
Humidity: 88%
Barometer: 1010 hPa
Clouds: Mostly cloudy
Visibility: 6 miles , 10 km
Cloud details: Partly cloudy 427 m
Mostly cloudy 579 m
2020/01/26 11:50 EGLL 261150Z AUTO 20011G23KT 9999 SCT014 BKN019 10/08 Q1010
 
EGUB - RAF Benson, United Kingdom
Distance from station: N 58mi, 93km
Updated: 26-Jan-2020 10:50:00
Few Clouds
Few Clouds
 Wind from S
Wind: S 16 mph , 26 km/h
Temperature: 9°C
Wind Chill: 6°C
Dew Point: 7°C
Humidity: 87%
Barometer: 1009 hPa
Clouds: Few Clouds
Visibility: 6 miles , 10 km
Cloud details: Few Clouds 1524 m
2020/01/26 10:50 EGUB 261050Z AUTO 17014KT 9999 // FEW050/// 09/07 Q1009
EGWU - RAF Northolt, United Kingdom
Distance from station: NNE 62mi, 99km
Updated: 26-Jan-2020 10:50:00
Mostly cloudy
Mostly cloudy
 Wind from SSW
Wind: SSW 12 mph , 19 km/h
Temperature: 10°C
Wind Chill: 7°C
Dew Point: 7°C
Humidity: 82%
Barometer: 1010 hPa
Clouds: Mostly cloudy
Visibility: 6 miles , 10 km
Cloud details: Partly cloudy 366 m
Mostly cloudy 1829 m
2020/01/26 10:50 EGWU 261050Z 20010KT 9999 SCT012 BKN060 10/07 Q1010 BECMG FEW012 SCT045
EGKB - Biggin Hill Airport, United Kingdom
Distance from station: NE 62mi, 100km
Updated: 26-Jan-2020 11:50:00
Mostly cloudy
Mostly cloudy
 Wind from S
Wind: S 15 mph , 24 km/h
Temperature: 8°C
Wind Chill: 4°C
Dew Point: 7°C
Humidity: 93%
Barometer: 1010 hPa
Clouds: Mostly cloudy
Visibility: 6 miles , 9 km
Cloud details: Mostly cloudy 305 m
2020/01/26 11:50 EGKB 261150Z 19013KT 9000 BKN010 08/07 Q1010
 
EGDY - RNAS Yeovilton, United Kingdom
Distance from station: WNW 66mi, 107km
Updated: 26-Jan-2020 11:04:00
Mostly cloudy
Mostly cloudy
 Wind from S
Wind: S 20 mph , 31 km/h
Temperature: 10°C
Wind Chill: 7°C
Dew Point: 9°C
Humidity: 94%
Barometer: 1008 hPa
Clouds: Mostly cloudy
Visibility: 6 miles , 10 km
Cloud details: Few Clouds 366 m
Mostly cloudy 457 m
2020/01/26 11:04 EGDY 261104Z 18017KT 9999 FEW012 BKN015 10/09 Q1008 RMK WHT
EGUO - Colerne Airfield, United Kingdom
Distance from station: NW 67mi, 108km
Updated: 14-Feb-2019 22:50:00
NOT Current
Clear
Clear
 Wind from ENE
Wind: ENE 1 mph , 2 km/h
Temperature: 1°C
Dew Point: 0°C
Humidity: 93%
Barometer: 1029 hPa
Summary: Clear
Visibility: greater than 7 miles , 10 km
2019/02/14 22:50 EGUO 142250Z 06001KT CAVOK 01/00 Q1029 BLU NOSIG
EGVA - RAF Fairford, United Kingdom
Distance from station: NNW 67mi, 108km
Updated: 26-Jan-2020 11:45:00
Light drizzle, Mostly cloudy
Light drizzle, Mostly cloudy
 Wind from S
Wind: S 16 mph , 26 km/h, Gust: 25 mph , 41 km/h
Temperature: 9°C
Wind Chill: 6°C
Dew Point: 7°C
Humidity: 87%
Barometer: 1007.1 hPa
Summary: Light Drizzle
Clouds: Mostly cloudy
Visibility: 6 miles , 10 km
Cloud details: Partly cloudy 457 m
Partly cloudy 640 m
Mostly cloudy 853 m
Mostly cloudy 1036 m
2020/01/26 11:45 EGVA 261145Z AUTO 19014G22KT 9999 -DZ SCT015 SCT021 BKN028 BKN034 09/07 A2974 RMK AO2 DZB45 CIG 023V028 CIG 021 RWY09 SLP076 $
 
EGVN - RAF Brize Norton, United Kingdom
Distance from station: NNW 71mi, 114km
Updated: 26-Jan-2020 11:20:00
Overcast
Overcast
 Wind from S
Wind: S 10 mph , 17 km/h
Temperature: 9°C
Wind Chill: 7°C
Dew Point: 7°C
Humidity: 87%
Barometer: 1008 hPa
Clouds: Overcast
Visibility: 6 miles , 10 km
Cloud details: Few Clouds 427 m
Partly cloudy 1463 m
Overcast 5791 m
2020/01/26 11:20 EGVN 261120Z 19009KT 9999 FEW014 SCT048 OVC190 09/07 Q1008 TEMPO SCT014 BKN048 RMK BLU TEMPO GRN
EGLC - London City Airport, United Kingdom
Distance from station: NE 71mi, 115km
Updated: 26-Jan-2020 11:50:00
Mostly cloudy
Mostly cloudy
 Wind from SSW
Wind: SSW 12 mph , 19 km/h
Temperature: 10°C
Wind Chill: 7°C
Dew Point: 7°C
Humidity: 82%
Barometer: 1010 hPa
Clouds: Mostly cloudy
Visibility: 6 miles , 10 km
Cloud details: Mostly cloudy 518 m
2020/01/26 11:50 EGLC 261150Z AUTO 20010KT 170V230 9999 BKN017 10/07 Q1010
EGGD - Bristol Airport, United Kingdom
Distance from station: WNW 80mi, 128km
Updated: 26-Jan-2020 11:50:00
Rain, Mostly cloudy
Rain, Mostly cloudy
 Wind from S
Wind: S 14 mph , 22 km/h
Temperature: 8°C
Wind Chill: 4°C
Dew Point: 8°C
Humidity: 100%
Barometer: 1006 hPa
Summary: Rain
Clouds: Mostly cloudy
Visibility: 3 miles , 5 km
Cloud details: Partly cloudy 122 m
Mostly cloudy 152 m
2020/01/26 11:50 EGGD 261150Z 19012KT 5000 RA SCT004 BKN005 08/08 Q1006 RERA
 
LFRC - Cherbourg-Maupertus Airport, France
Distance from station: S 81mi, 130km
Updated: 26-Jan-2020 11:30:00
Mostly cloudy
Mostly cloudy
 Wind from SSW
Wind: SSW 16 mph , 26 km/h
Temperature: 9°C
Wind Chill: 6°C
Dew Point: 7°C
Humidity: 87%
Barometer: 1012 hPa
Clouds: Mostly cloudy
Visibility: 6 miles , 10 km
Cloud details: Mostly cloudy 335 m
Mostly cloudy 792 m
Mostly cloudy 1036 m
2020/01/26 11:30 LFRC 261130Z AUTO 20014KT 9999 BKN011 BKN026 BKN034 09/07 Q1012 TEMPO 4000 RA BKN008 BECMG 19015G25KT
EGGW - Luton Airport, United Kingdom
Distance from station: NNE 82mi, 132km
Updated: 26-Jan-2020 11:50:00
Mostly cloudy
Mostly cloudy
 Wind from S
Wind: S 12 mph , 19 km/h
Temperature: 5°C
Wind Chill: 1°C
Dew Point: 5°C
Humidity: 100%
Barometer: 1009 hPa
Clouds: Mostly cloudy
Visibility: 6 miles , 10 km
Cloud details: Mostly cloudy 305 m
2020/01/26 11:50 EGGW 261150Z AUTO 19010KT 9999 BKN010 05/05 Q1009